Time;durP1;ratioP1;P1;durP2;ratioP2;P2;SDS_P1;SDS_P2;PMS_P1;PMS_P2;Temp;Humidity;BMP_temperature;BMP_pressure;BME280_temperature;BME280_humidity;BME280_pressure;Samples;Min_cycle;Max_cycle;Signal;HPM_P1;HPM_P2
2023/11/11 00:01:37;;;;;;;;;;;6.00;99.90;;;;;;5048998;28;19909;-84
2023/11/11 00:04:02;;;;;;;;;;;6.00;99.90;;;;;;5055959;28;19944;-86
2023/11/11 00:06:28;;;;;;;;;;;6.00;99.90;;;;;;5056072;28;19993;-84
2023/11/11 00:08:54;;;;;;;;;;;6.00;99.90;;;;;;5054654;28;20358;-83
2023/11/11 00:11:20;;;;;;;;;;;6.10;99.90;;;;;;5073089;28;19897;-82
2023/11/11 00:13:46;;;;;;;;;;;6.10;99.90;;;;;;5057766;28;19913;-83
2023/11/11 00:16:11;;;;;;;;;;;6.00;99.90;;;;;;5049073;28;19943;-84
2023/11/11 00:18:37;;;;;;;;;;;6.00;99.90;;;;;;5056107;28;19960;-85
2023/11/11 00:21:04;;;;;;;;;;;5.90;99.90;;;;;;5039830;28;19912;-84
2023/11/11 00:23:30;;;;;;;;;;;5.90;99.90;;;;;;5062147;28;19920;-85
2023/11/11 00:25:56;;;;;;;;;;;5.80;99.90;;;;;;5074278;28;19944;-85
2023/11/11 00:28:22;;;;;;;;;;;5.90;99.90;;;;;;5077164;28;19920;-85
2023/11/11 00:30:50;;;;;;;;;;;6.00;99.90;;;;;;5049178;28;19939;-84
2023/11/11 00:33:16;;;;;;;;;;;6.00;99.90;;;;;;5062351;28;19909;-83
2023/11/11 00:35:42;;;;;;;;;;;6.10;99.90;;;;;;5058477;28;19920;-83
2023/11/11 00:38:09;;;;;;;;;;;6.10;99.90;;;;;;5055229;28;19994;-86
2023/11/11 00:40:37;;;;;;;;;;;6.10;99.90;;;;;;5054737;28;19913;-85
2023/11/11 00:43:03;;;;;;;;;;;6.10;99.90;;;;;;5054649;28;19996;-84
2023/11/11 00:45:28;;;;;;;;;;;6.20;99.90;;;;;;5055106;28;19997;-84
2023/11/11 00:47:54;;;;;;;;;;;6.20;99.90;;;;;;5055703;28;19909;-87
2023/11/11 00:50:20;;;;;;;;;;;6.30;99.90;;;;;;5054065;28;19920;-83
2023/11/11 00:52:46;;;;;;;;;;;6.30;99.90;;;;;;5054682;28;19909;-84
2023/11/11 00:55:11;;;;;;;;;;;6.30;99.90;;;;;;5054773;28;19940;-85
2023/11/11 00:57:39;;;;;;;;;;;6.30;99.90;;;;;;5054426;28;19928;-86
2023/11/11 01:00:05;;;;;;;;;;;6.40;99.90;;;;;;5054290;28;19963;-84
2023/11/11 01:02:31;;;;;;;;;;;6.40;99.90;;;;;;5043880;28;19963;-84
2023/11/11 01:04:56;;;;;;;;;;;6.40;99.90;;;;;;5053868;28;19917;-84
2023/11/11 01:07:22;;;;;;;;;;;6.40;99.90;;;;;;5053427;28;20015;-84
2023/11/11 01:09:50;;;;;;;;;;;6.40;99.90;;;;;;5053486;28;20356;-85
2023/11/11 01:12:19;;;;;;;;;;;6.50;99.90;;;;;;5053630;28;19908;-83
2023/11/11 01:14:45;;;;;;;;;;;6.30;99.90;;;;;;5053973;28;19912;-84
2023/11/11 01:17:11;;;;;;;;;;;6.40;99.90;;;;;;5054158;28;19962;-86
2023/11/11 01:19:37;;;;;;;;;;;6.40;99.90;;;;;;5055263;28;19912;-83
2023/11/11 01:22:03;;;;;;;;;;;6.40;99.90;;;;;;5054979;28;20392;-84
2023/11/11 01:24:28;;;;;;;;;;;6.40;99.90;;;;;;5053043;28;20022;-85
2023/11/11 01:26:54;;;;;;;;;;;6.40;99.90;;;;;;5054560;28;19915;-86
2023/11/11 01:29:21;;;;;;;;;;;6.20;99.90;;;;;;5054970;28;19913;-85
2023/11/11 01:31:47;;;;;;;;;;;6.30;99.90;;;;;;5036159;28;19944;-86
2023/11/11 01:34:13;;;;;;;;;;;6.40;99.90;;;;;;5054413;28;19909;-83
2023/11/11 01:36:39;;;;;;;;;;;6.30;99.90;;;;;;5060261;28;19924;-84
2023/11/11 01:39:06;;;;;;;;;;;6.40;99.90;;;;;;5063951;28;19913;-85
2023/11/11 01:41:32;;;;;;;;;;;6.30;99.90;;;;;;5063548;28;19976;-86
2023/11/11 01:43:57;;;;;;;;;;;6.40;99.90;;;;;;5068558;28;19924;-85
2023/11/11 01:46:23;;;;;;;;;;;6.30;99.90;;;;;;5072760;28;19916;-88
2023/11/11 01:48:49;;;;;;;;;;;6.40;99.90;;;;;;5056954;28;20304;-87
2023/11/11 01:51:15;;;;;;;;;;;6.30;99.90;;;;;;5059250;28;19936;-86
2023/11/11 01:53:41;;;;;;;;;;;6.30;99.90;;;;;;5073575;28;20285;-87
2023/11/11 01:56:08;;;;;;;;;;;6.30;99.90;;;;;;5073638;28;20012;-90
2023/11/11 01:58:38;;;;;;;;;;;6.30;99.90;;;;;;5070641;28;19909;-84
2023/11/11 02:01:04;;;;;;;;;;;6.40;99.90;;;;;;5068848;28;19916;-88
2023/11/11 02:03:34;;;;;;;;;;;6.40;99.90;;;;;;5053345;28;19909;-87
2023/11/11 02:06:00;;;;;;;;;;;6.30;99.90;;;;;;5053521;28;19919;-87
2023/11/11 02:08:30;;;;;;;;;;;6.40;99.90;;;;;;5053688;28;19909;-87
2023/11/11 02:11:00;;;;;;;;;;;6.40;99.90;;;;;;5054227;28;19909;-88
2023/11/11 02:13:29;;;;;;;;;;;6.40;99.90;;;;;;5041058;28;19908;-87
2023/11/11 02:15:55;;;;;;;;;;;6.30;99.90;;;;;;5067202;28;19905;-88
2023/11/11 02:18:24;;;;;;;;;;;6.30;99.90;;;;;;5066225;28;20384;-87
2023/11/11 02:20:49;;;;;;;;;;;6.30;99.90;;;;;;5051683;28;20703;-87
2023/11/11 02:23:16;;;;;;;;;;;6.30;99.90;;;;;;5053709;28;20016;-86
2023/11/11 02:25:42;;;;;;;;;;;6.40;99.90;;;;;;5053665;28;20332;-87
2023/11/11 02:28:07;;;;;;;;;;;6.30;99.90;;;;;;5035652;28;19938;-86
2023/11/11 02:30:33;;;;;;;;;;;6.30;99.90;;;;;;5052860;28;19967;-87
2023/11/11 02:32:59;;;;;;;;;;;6.30;99.90;;;;;;5052048;28;19913;-85
2023/11/11 02:35:25;;;;;;;;;;;6.40;99.90;;;;;;5054032;28;20449;-85
2023/11/11 02:37:51;;;;;;;;;;;6.40;99.90;;;;;;5049596;28;19925;-85
2023/11/11 02:40:16;;;;;;;;;;;6.30;99.90;;;;;;5053357;28;19934;-87
2023/11/11 02:42:42;;;;;;;;;;;6.30;99.90;;;;;;5051867;28;19940;-87
2023/11/11 02:45:08;;;;;;;;;;;6.30;99.90;;;;;;5053724;28;20231;-87
2023/11/11 02:47:34;;;;;;;;;;;6.40;99.90;;;;;;5056676;28;19909;-86
2023/11/11 02:50:00;;;;;;;;;;;6.40;99.90;;;;;;5057226;28;19913;-88
2023/11/11 02:52:26;;;;;;;;;;;6.40;99.90;;;;;;5059865;28;19959;-88
2023/11/11 02:54:51;;;;;;;;;;;6.30;99.90;;;;;;5054584;28;19909;-88
2023/11/11 02:57:17;;;;;;;;;;;6.30;99.90;;;;;;5038107;28;19925;-85
2023/11/11 02:59:43;;;;;;;;;;;6.30;99.90;;;;;;5053132;28;20354;-84
2023/11/11 03:02:11;;;;;;;;;;;6.30;99.90;;;;;;5052882;28;19983;-84
2023/11/11 03:04:38;;;;;;;;;;;6.20;99.90;;;;;;5051790;28;19919;-86
2023/11/11 03:07:04;;;;;;;;;;;6.20;99.90;;;;;;5053121;28;19908;-85
2023/11/11 03:09:30;;;;;;;;;;;6.20;99.90;;;;;;5052359;28;19936;-85
2023/11/11 03:11:56;;;;;;;;;;;6.20;99.90;;;;;;5047905;28;19913;-84
2023/11/11 03:14:25;;;;;;;;;;;6.20;99.90;;;;;;5053093;28;19916;-85
2023/11/11 03:16:51;;;;;;;;;;;6.20;99.90;;;;;;5046995;28;19921;-86
2023/11/11 03:19:17;;;;;;;;;;;6.20;99.90;;;;;;5056874;28;19920;-84
2023/11/11 03:21:42;;;;;;;;;;;6.20;99.90;;;;;;5068556;28;20290;-86
2023/11/11 03:24:08;;;;;;;;;;;6.20;99.90;;;;;;5055477;28;20021;-85
2023/11/11 03:26:34;;;;;;;;;;;6.20;99.90;;;;;;5037703;28;20392;-85
2023/11/11 03:29:00;;;;;;;;;;;6.20;99.90;;;;;;5035606;28;19913;-87
2023/11/11 03:31:26;;;;;;;;;;;6.20;99.90;;;;;;5053714;28;19970;-88
2023/11/11 03:33:51;;;;;;;;;;;6.20;99.90;;;;;;5036454;28;19909;-86
2023/11/11 03:36:17;;;;;;;;;;;6.20;99.90;;;;;;5054851;28;19921;-88
2023/11/11 03:38:43;;;;;;;;;;;6.20;99.90;;;;;;5061568;28;19909;-89
2023/11/11 03:41:08;;;;;;;;;;;6.20;99.90;;;;;;5043614;28;19980;-87
2023/11/11 03:43:35;;;;;;;;;;;6.20;99.90;;;;;;5060893;28;19916;-87
2023/11/11 03:46:05;;;;;;;;;;;6.20;99.90;;;;;;5061515;28;19908;-87
2023/11/11 03:48:30;;;;;;;;;;;6.30;99.90;;;;;;5042157;28;19924;-87
2023/11/11 03:50:56;;;;;;;;;;;6.20;99.90;;;;;;5058878;28;19909;-87
2023/11/11 03:53:22;;;;;;;;;;;6.30;99.90;;;;;;5058379;28;20028;-90
2023/11/11 03:55:48;;;;;;;;;;;6.30;99.90;;;;;;5041406;28;19915;-87
2023/11/11 03:58:13;;;;;;;;;;;6.30;99.90;;;;;;5063585;28;19921;-87
2023/11/11 04:00:43;;;;;;;;;;;6.40;99.90;;;;;;5056261;28;19916;-85
2023/11/11 04:03:09;;;;;;;;;;;6.40;99.90;;;;;;5060267;28;19948;-85
2023/11/11 04:05:34;;;;;;;;;;;6.40;99.90;;;;;;5076435;28;19901;-84
2023/11/11 04:08:00;;;;;;;;;;;6.30;99.90;;;;;;5060193;28;20404;-87
2023/11/11 04:10:26;;;;;;;;;;;6.30;99.90;;;;;;5055381;28;19916;-88
2023/11/11 04:12:51;;;;;;;;;;;6.30;99.90;;;;;;5054881;28;19916;-85
2023/11/11 04:15:17;;;;;;;;;;;6.30;99.90;;;;;;5052649;28;20297;-86
2023/11/11 04:17:43;;;;;;;;;;;6.30;99.90;;;;;;5064895;28;19923;-87
2023/11/11 04:20:11;;;;;;;;;;;6.30;99.90;;;;;;5068274;28;19944;-86
2023/11/11 04:22:43;;;;;;;;;;;6.30;99.90;;;;;;5061980;28;20199;-87
2023/11/11 04:25:10;;;;;;;;;;;6.30;99.90;;;;;;5061809;28;19975;-87
2023/11/11 04:27:37;;;;;;;;;;;6.30;99.90;;;;;;5060426;28;20312;-87
2023/11/11 04:30:06;;;;;;;;;;;6.30;99.90;;;;;;5056298;28;20273;-86
2023/11/11 04:32:35;;;;;;;;;;;6.30;99.90;;;;;;5036449;28;19923;-85
2023/11/11 04:35:01;;;;;;;;;;;6.30;99.90;;;;;;5054253;28;19913;-88
2023/11/11 04:37:26;;;;;;;;;;;6.40;99.90;;;;;;5055877;28;19928;-87
2023/11/11 04:39:57;;;;;;;;;;;6.40;99.90;;;;;;5038569;28;20362;-87
2023/11/11 04:42:29;;;;;;;;;;;6.40;99.90;;;;;;5052593;28;19912;-87
2023/11/11 04:44:56;;;;;;;;;;;6.30;99.90;;;;;;5049833;28;19909;-88
2023/11/11 04:47:22;;;;;;;;;;;6.30;99.90;;;;;;5024861;28;19909;-86
2023/11/11 04:49:48;;;;;;;;;;;6.10;99.90;;;;;;5037373;28;20388;-85
2023/11/11 04:52:14;;;;;;;;;;;6.30;99.90;;;;;;5055321;28;20023;-85
2023/11/11 04:54:41;;;;;;;;;;;6.30;99.90;;;;;;5064108;28;19959;-81
2023/11/11 04:57:06;;;;;;;;;;;6.20;99.90;;;;;;5073998;28;19932;-85
2023/11/11 04:59:32;;;;;;;;;;;6.20;99.90;;;;;;5046595;28;19908;-86
2023/11/11 05:01:58;;;;;;;;;;;6.30;99.90;;;;;;5068426;28;19909;-87
2023/11/11 05:04:24;;;;;;;;;;;6.30;99.90;;;;;;5064497;28;19909;-86
2023/11/11 05:06:52;;;;;;;;;;;6.30;99.90;;;;;;5056401;28;19956;-86
2023/11/11 05:09:19;;;;;;;;;;;6.30;99.90;;;;;;5055630;28;19917;-87
2023/11/11 05:11:45;;;;;;;;;;;6.40;99.90;;;;;;5055730;28;20011;-86
2023/11/11 05:14:13;;;;;;;;;;;6.40;99.90;;;;;;5056153;28;19909;-87
2023/11/11 05:16:44;;;;;;;;;;;6.40;99.90;;;;;;5050978;28;19979;-87
2023/11/11 05:19:10;;;;;;;;;;;6.40;99.90;;;;;;5067870;28;19909;-85
2023/11/11 05:21:36;;;;;;;;;;;6.40;99.90;;;;;;5055334;28;20341;-87
2023/11/11 05:24:03;;;;;;;;;;;6.30;99.90;;;;;;5057760;28;19905;-86
2023/11/11 05:26:29;;;;;;;;;;;6.40;99.90;;;;;;5063481;28;19921;-85
2023/11/11 05:28:57;;;;;;;;;;;6.30;99.90;;;;;;5047626;28;20296;-86
2023/11/11 05:31:23;;;;;;;;;;;6.40;99.90;;;;;;5050761;28;19952;-85
2023/11/11 05:33:49;;;;;;;;;;;6.50;99.90;;;;;;5052895;28;19918;-85
2023/11/11 05:36:16;;;;;;;;;;;6.50;99.90;;;;;;5053205;28;19921;-87
2023/11/11 05:38:42;;;;;;;;;;;6.50;99.90;;;;;;5036463;28;19967;-86
2023/11/11 05:41:08;;;;;;;;;;;6.50;99.90;;;;;;5054884;28;19909;-87
2023/11/11 05:43:33;;;;;;;;;;;6.50;99.90;;;;;;5054461;28;19947;-86
2023/11/11 05:45:59;;;;;;;;;;;6.50;99.90;;;;;;5041128;28;19913;-87
2023/11/11 05:48:25;;;;;;;;;;;6.50;99.90;;;;;;5052185;28;19956;-86
2023/11/11 05:50:51;;;;;;;;;;;6.50;99.90;;;;;;5059874;28;19916;-86
2023/11/11 05:53:17;;;;;;;;;;;6.50;99.90;;;;;;5056659;28;19963;-86
2023/11/11 05:55:43;;;;;;;;;;;6.50;99.90;;;;;;5057074;28;19912;-85
2023/11/11 05:58:09;;;;;;;;;;;6.50;99.90;;;;;;5057872;28;20468;-83
2023/11/11 06:00:37;;;;;;;;;;;6.50;99.90;;;;;;5055312;28;19916;-85
2023/11/11 06:03:03;;;;;;;;;;;6.50;99.90;;;;;;5054984;28;19931;-83
2023/11/11 06:05:29;;;;;;;;;;;6.60;99.90;;;;;;5053839;28;19909;-85
2023/11/11 06:07:55;;;;;;;;;;;6.70;99.90;;;;;;5052991;28;20425;-85
2023/11/11 06:10:21;;;;;;;;;;;6.70;99.90;;;;;;5052546;28;19919;-85
2023/11/11 06:12:47;;;;;;;;;;;6.70;99.90;;;;;;5059164;28;19919;-85
2023/11/11 06:15:13;;;;;;;;;;;6.70;99.90;;;;;;5071812;28;20019;-85
2023/11/11 06:17:38;;;;;;;;;;;6.80;99.90;;;;;;5066850;28;19917;-84
2023/11/11 06:20:08;;;;;;;;;;;6.80;99.90;;;;;;5044217;28;20365;-85
2023/11/11 06:22:33;;;;;;;;;;;6.80;99.90;;;;;;5058000;28;19916;-86
2023/11/11 06:24:59;;;;;;;;;;;6.80;99.90;;;;;;5022461;28;19909;-83
2023/11/11 06:27:25;;;;;;;;;;;6.80;99.90;;;;;;5057973;28;19972;-83
2023/11/11 06:29:51;;;;;;;;;;;6.80;99.90;;;;;;5071381;28;19909;-83
2023/11/11 06:32:16;;;;;;;;;;;6.70;99.90;;;;;;5065498;28;19913;-86
2023/11/11 06:34:42;;;;;;;;;;;6.60;99.90;;;;;;5044013;28;19984;-85
2023/11/11 06:37:08;;;;;;;;;;;6.60;99.90;;;;;;5064237;28;20022;-88
2023/11/11 06:39:33;;;;;;;;;;;6.60;99.90;;;;;;5057257;28;20370;-86
2023/11/11 06:41:59;;;;;;;;;;;6.60;99.90;;;;;;5048830;28;19933;-87
2023/11/11 06:44:25;;;;;;;;;;;6.70;99.90;;;;;;5068391;28;19921;-86
2023/11/11 06:46:51;;;;;;;;;;;6.60;99.90;;;;;;5061709;28;19912;-84
2023/11/11 06:49:17;;;;;;;;;;;6.60;99.90;;;;;;5069651;28;20078;-86
2023/11/11 06:51:42;;;;;;;;;;;6.60;99.90;;;;;;5066176;28;19908;-86
2023/11/11 06:54:09;;;;;;;;;;;6.60;99.90;;;;;;5064590;28;20408;-89
2023/11/11 06:56:35;;;;;;;;;;;6.50;99.90;;;;;;5069236;28;20404;-88
2023/11/11 06:59:02;;;;;;;;;;;6.50;99.90;;;;;;5070746;28;19921;-89
2023/11/11 07:01:29;;;;;;;;;;;6.50;99.90;;;;;;5069029;28;19913;-86
2023/11/11 07:03:57;;;;;;;;;;;6.50;99.90;;;;;;5066310;28;20480;-88
2023/11/11 07:06:23;;;;;;;;;;;6.60;99.90;;;;;;5067807;28;19909;-87
2023/11/11 07:08:50;;;;;;;;;;;6.60;99.90;;;;;;5046933;28;19917;-86
2023/11/11 07:11:16;;;;;;;;;;;6.70;99.90;;;;;;5061269;28;20018;-88
2023/11/11 07:13:43;;;;;;;;;;;6.80;99.90;;;;;;5069218;28;19908;-88
2023/11/11 07:16:19;;;;;;;;;;;6.80;99.90;;;;;;5061331;28;19974;-88
2023/11/11 07:18:45;;;;;;;;;;;6.80;99.90;;;;;;5049474;28;19955;-89
2023/11/11 07:21:18;;;;;;;;;;;6.90;99.90;;;;;;5071987;28;19936;-88
2023/11/11 07:23:44;;;;;;;;;;;6.90;99.90;;;;;;5065560;28;20335;-85
2023/11/11 07:26:11;;;;;;;;;;;6.90;99.90;;;;;;5052709;28;19920;-88
2023/11/11 07:28:37;;;;;;;;;;;6.90;99.90;;;;;;5078912;28;19927;-92
2023/11/11 07:31:03;;;;;;;;;;;6.90;99.90;;;;;;5079045;28;19913;-90
2023/11/11 07:33:30;;;;;;;;;;;6.90;99.90;;;;;;5061538;28;19912;-88
2023/11/11 07:35:56;;;;;;;;;;;6.90;99.80;;;;;;5057964;28;19928;-88
2023/11/11 07:38:21;;;;;;;;;;;6.90;99.90;;;;;;5075296;28;19909;-85
2023/11/11 07:40:47;;;;;;;;;;;6.90;99.90;;;;;;5072925;28;19912;-89
2023/11/11 07:43:13;;;;;;;;;;;6.90;99.90;;;;;;5058423;28;19917;-87
2023/11/11 07:45:39;;;;;;;;;;;6.90;99.90;;;;;;5072877;28;19909;-85
2023/11/11 07:48:05;;;;;;;;;;;6.90;99.90;;;;;;5070894;28;19908;-85
2023/11/11 07:50:31;;;;;;;;;;;6.90;99.90;;;;;;5069754;28;19913;-87
2023/11/11 07:52:56;;;;;;;;;;;7.00;99.90;;;;;;5048211;28;19974;-86
2023/11/11 07:55:23;;;;;;;;;;;7.10;99.90;;;;;;5068107;28;19920;-90
2023/11/11 07:57:49;;;;;;;;;;;7.20;99.70;;;;;;5061232;28;19921;-88
2023/11/11 08:00:19;;;;;;;;;;;7.20;99.50;;;;;;5068709;28;19932;-86
2023/11/11 08:02:45;;;;;;;;;;;7.20;99.50;;;;;;5061030;28;19990;-88
2023/11/11 08:05:11;;;;;;;;;;;7.20;99.30;;;;;;5048519;28;19913;-89
2023/11/11 08:07:37;;;;;;;;;;;7.10;99.30;;;;;;5074597;28;19913;-89
2023/11/11 08:10:03;;;;;;;;;;;7.10;99.30;;;;;;5048517;28;19919;-88
2023/11/11 08:12:29;;;;;;;;;;;7.10;99.40;;;;;;5057370;28;19924;-88
2023/11/11 08:14:57;;;;;;;;;;;7.10;99.30;;;;;;5059050;28;19919;-83
2023/11/11 08:17:23;;;;;;;;;;;7.10;99.50;;;;;;5042636;28;19917;-85
2023/11/11 08:19:51;;;;;;;;;;;7.20;99.50;;;;;;5072902;28;19919;-85
2023/11/11 08:22:17;;;;;;;;;;;7.30;99.30;;;;;;5061688;28;19901;-89
2023/11/11 08:24:43;;;;;;;;;;;7.30;99.30;;;;;;5056448;28;19983;-89
2023/11/11 08:27:09;;;;;;;;;;;7.30;99.00;;;;;;5070411;28;19912;-90
2023/11/11 08:29:36;;;;;;;;;;;7.30;99.10;;;;;;5054088;28;19913;-92
2023/11/11 08:32:02;;;;;;;;;;;7.40;99.20;;;;;;5072833;28;19915;-86
2023/11/11 08:34:31;;;;;;;;;;;7.50;99.10;;;;;;5068630;28;19893;-94
2023/11/11 08:36:57;;;;;;;;;;;7.50;99.00;;;;;;5064008;28;20001;-88
2023/11/11 08:39:24;;;;;;;;;;;7.60;99.00;;;;;;5070273;28;19958;-88
2023/11/11 08:41:50;;;;;;;;;;;7.60;98.90;;;;;;5045050;28;20290;-88
2023/11/11 08:44:16;;;;;;;;;;;7.60;98.60;;;;;;5061043;28;20004;-90
2023/11/11 08:46:42;;;;;;;;;;;7.50;98.70;;;;;;5048654;28;19917;-90
2023/11/11 08:49:08;;;;;;;;;;;7.50;98.60;;;;;;5060408;28;19913;-91
2023/11/11 08:51:34;;;;;;;;;;;7.50;98.80;;;;;;5068846;28;19915;-92
2023/11/11 08:54:00;;;;;;;;;;;7.60;99.00;;;;;;5028602;28;19893;-91
2023/11/11 08:56:29;;;;;;;;;;;7.70;98.90;;;;;;5015541;28;20387;-88
2023/11/11 08:58:57;;;;;;;;;;;8.10;99.00;;;;;;5019858;28;19921;-87
2023/11/11 09:01:23;;;;;;;;;;;8.30;98.30;;;;;;5023788;28;20001;-91
2023/11/11 09:03:49;;;;;;;;;;;8.20;97.80;;;;;;5025990;28;19914;-89
2023/11/11 09:06:16;;;;;;;;;;;8.30;97.60;;;;;;5004423;28;19913;-90
2023/11/11 09:08:44;;;;;;;;;;;8.20;97.30;;;;;;5013811;28;19909;-89
2023/11/11 09:11:14;;;;;;;;;;;8.10;97.50;;;;;;5007781;28;19901;-91
2023/11/11 09:13:39;;;;;;;;;;;7.90;97.30;;;;;;5001358;28;19909;-91
2023/11/11 09:16:05;;;;;;;;;;;7.70;97.60;;;;;;5001810;28;19920;-90
2023/11/11 09:18:31;;;;;;;;;;;7.70;97.70;;;;;;5000331;28;19909;-91
2023/11/11 09:20:57;;;;;;;;;;;7.70;97.80;;;;;;5017967;28;19925;-90
2023/11/11 09:23:26;;;;;;;;;;;7.70;98.00;;;;;;5015533;28;19988;-92
2023/11/11 09:25:52;;;;;;;;;;;7.70;97.90;;;;;;5042256;28;19940;-83
2023/11/11 09:28:19;;;;;;;;;;;7.70;97.90;;;;;;5053056;28;19916;-83
2023/11/11 09:30:45;;;;;;;;;;;7.70;97.90;;;;;;5042404;28;19916;-83
2023/11/11 09:33:11;;;;;;;;;;;7.80;97.90;;;;;;5065967;28;19913;-83
2023/11/11 09:35:36;;;;;;;;;;;7.80;97.90;;;;;;5054961;28;19944;-84
2023/11/11 09:38:02;;;;;;;;;;;7.80;97.90;;;;;;5052663;28;20022;-81
2023/11/11 09:40:29;;;;;;;;;;;7.90;97.80;;;;;;5042912;28;20011;-82
2023/11/11 09:42:55;;;;;;;;;;;7.90;97.80;;;;;;5055482;28;20299;-81
2023/11/11 09:45:21;;;;;;;;;;;8.00;97.80;;;;;;5052715;28;19915;-82
2023/11/11 09:47:50;;;;;;;;;;;7.90;97.50;;;;;;5052964;28;19912;-84
2023/11/11 09:50:19;;;;;;;;;;;7.90;97.50;;;;;;5052785;28;19909;-83
2023/11/11 09:52:45;;;;;;;;;;;7.90;97.60;;;;;;5052521;28;19967;-84
2023/11/11 09:55:13;;;;;;;;;;;8.00;97.60;;;;;;5051929;28;20447;-84
2023/11/11 09:57:39;;;;;;;;;;;8.00;97.60;;;;;;5054130;28;20028;-84
2023/11/11 10:00:07;;;;;;;;;;;8.10;97.60;;;;;;5053363;28;19948;-83
2023/11/11 10:02:32;;;;;;;;;;;8.10;97.50;;;;;;5052548;28;19909;-83
2023/11/11 10:04:58;;;;;;;;;;;8.10;97.40;;;;;;5054315;28;19916;-84
2023/11/11 10:07:24;;;;;;;;;;;8.10;97.40;;;;;;5052489;28;19909;-85
2023/11/11 10:09:50;;;;;;;;;;;8.20;97.30;;;;;;5034029;28;19919;-84
2023/11/11 10:12:16;;;;;;;;;;;8.30;97.30;;;;;;5033886;28;19913;-84
2023/11/11 10:14:42;;;;;;;;;;;8.40;97.20;;;;;;5053043;28;19909;-83
2023/11/11 10:17:10;;;;;;;;;;;8.60;97.10;;;;;;5052860;28;19916;-85
2023/11/11 10:19:43;;;;;;;;;;;8.70;97.00;;;;;;5052247;28;19909;-84
2023/11/11 10:22:08;;;;;;;;;;;8.80;96.80;;;;;;5043517;28;19916;-85
2023/11/11 10:24:35;;;;;;;;;;;8.70;96.40;;;;;;5051410;28;20325;-85
2023/11/11 10:27:00;;;;;;;;;;;8.60;96.20;;;;;;5030003;28;19939;-84
2023/11/11 10:29:26;;;;;;;;;;;8.60;96.30;;;;;;5046127;28;19913;-85
2023/11/11 10:31:52;;;;;;;;;;;8.50;96.30;;;;;;5034810;28;20286;-83
2023/11/11 10:34:17;;;;;;;;;;;8.50;96.10;;;;;;5053227;28;19917;-84
2023/11/11 10:36:44;;;;;;;;;;;8.40;96.40;;;;;;5052600;28;19916;-86
2023/11/11 10:39:11;;;;;;;;;;;8.60;96.50;;;;;;5052830;28;19913;-85
2023/11/11 10:41:37;;;;;;;;;;;8.60;96.40;;;;;;5053213;28;19917;-86
2023/11/11 10:44:07;;;;;;;;;;;8.60;96.30;;;;;;5051989;28;19912;-85
2023/11/11 10:46:33;;;;;;;;;;;8.70;96.30;;;;;;5051983;28;20423;-85
2023/11/11 10:48:59;;;;;;;;;;;8.70;95.90;;;;;;5059017;28;19908;-87
2023/11/11 10:51:25;;;;;;;;;;;8.60;95.80;;;;;;5056303;28;19909;-87
2023/11/11 10:53:50;;;;;;;;;;;8.60;96.00;;;;;;5055312;28;20332;-85
2023/11/11 10:56:19;;;;;;;;;;;8.60;96.20;;;;;;5057030;28;20336;-86
2023/11/11 10:58:45;;;;;;;;;;;8.60;95.90;;;;;;5044723;28;19928;-86
2023/11/11 11:01:10;;;;;;;;;;;8.60;95.90;;;;;;5047552;28;19948;-83
2023/11/11 11:03:37;;;;;;;;;;;8.70;95.90;;;;;;5039790;28;19913;-85
2023/11/11 11:06:06;;;;;;;;;;;8.70;96.00;;;;;;5057473;28;19908;-84
2023/11/11 11:08:32;;;;;;;;;;;8.90;96.10;;;;;;5057567;28;19955;-87
2023/11/11 11:11:07;;;;;;;;;;;9.00;95.90;;;;;;5058908;28;20366;-87
2023/11/11 11:13:35;;;;;;;;;;;9.10;95.80;;;;;;5049430;28;19909;-86
2023/11/11 11:16:01;;;;;;;;;;;9.00;95.30;;;;;;5068324;28;19912;-83
2023/11/11 11:18:27;;;;;;;;;;;9.00;95.30;;;;;;5062103;28;19921;-85
2023/11/11 11:20:57;;;;;;;;;;;8.90;95.30;;;;;;5068650;28;19908;-82
2023/11/11 11:23:23;;;;;;;;;;;8.80;95.20;;;;;;5061131;28;19913;-83
2023/11/11 11:25:50;;;;;;;;;;;8.70;95.30;;;;;;5050628;28;20046;-82
2023/11/11 11:28:21;;;;;;;;;;;8.70;95.50;;;;;;5055782;28;19916;-82
2023/11/11 11:30:51;;;;;;;;;;;8.60;95.50;;;;;;5037900;28;19913;-84
2023/11/11 11:33:18;;;;;;;;;;;8.70;95.70;;;;;;5055269;28;19920;-82
2023/11/11 11:35:45;;;;;;;;;;;8.70;95.70;;;;;;5055814;28;19916;-84
2023/11/11 11:38:11;;;;;;;;;;;8.70;95.70;;;;;;5057344;28;19920;-82
2023/11/11 11:40:37;;;;;;;;;;;8.70;95.50;;;;;;5060529;28;19919;-85
2023/11/11 11:43:09;;;;;;;;;;;8.70;95.50;;;;;;5039242;28;20009;-83
2023/11/11 11:45:36;;;;;;;;;;;8.60;95.30;;;;;;5026244;28;20004;-84
2023/11/11 11:48:01;;;;;;;;;;;8.70;95.50;;;;;;5056184;28;19932;-85
2023/11/11 11:50:27;;;;;;;;;;;8.60;95.50;;;;;;5054770;28;19912;-83
2023/11/11 11:52:56;;;;;;;;;;;8.70;95.70;;;;;;5057662;28;20384;-84
2023/11/11 11:55:24;;;;;;;;;;;8.70;95.70;;;;;;5057289;28;19936;-87
2023/11/11 11:57:56;;;;;;;;;;;8.60;95.50;;;;;;5041456;28;19985;-85
2023/11/11 12:00:29;;;;;;;;;;;8.70;95.60;;;;;;5059724;28;19988;-85
2023/11/11 12:02:56;;;;;;;;;;;8.70;95.60;;;;;;5029222;28;19909;-84
2023/11/11 12:05:23;;;;;;;;;;;8.70;95.60;;;;;;5059934;28;19977;-88
2023/11/11 12:07:49;;;;;;;;;;;8.60;95.60;;;;;;5067744;28;19908;-84
2023/11/11 12:10:14;;;;;;;;;;;8.60;95.70;;;;;;5067477;28;19919;-88
2023/11/11 12:12:40;;;;;;;;;;;8.50;95.70;;;;;;5061410;28;20282;-88
2023/11/11 12:15:12;;;;;;;;;;;8.50;95.80;;;;;;5065117;28;19909;-83
2023/11/11 12:17:42;;;;;;;;;;;8.50;95.90;;;;;;5056179;28;19917;-84
2023/11/11 12:20:08;;;;;;;;;;;8.40;96.00;;;;;;5040947;28;19909;-85
2023/11/11 12:22:35;;;;;;;;;;;8.40;96.10;;;;;;5042177;28;20369;-85
2023/11/11 12:25:01;;;;;;;;;;;8.40;96.20;;;;;;5054845;28;19913;-85
2023/11/11 12:27:28;;;;;;;;;;;8.40;96.30;;;;;;5037462;28;19948;-84
2023/11/11 12:29:53;;;;;;;;;;;8.40;96.30;;;;;;5055226;28;19974;-82
2023/11/11 12:32:19;;;;;;;;;;;8.40;96.30;;;;;;5057466;28;19909;-85
2023/11/11 12:34:50;;;;;;;;;;;8.40;96.30;;;;;;5057524;28;19908;-84
2023/11/11 12:37:22;;;;;;;;;;;8.40;96.40;;;;;;5055585;28;19982;-84
2023/11/11 12:39:50;;;;;;;;;;;8.30;96.40;;;;;;5054504;28;19912;-85
2023/11/11 12:42:17;;;;;;;;;;;8.30;96.40;;;;;;5044987;28;20290;-84
2023/11/11 12:44:43;;;;;;;;;;;8.30;96.50;;;;;;5059590;28;20468;-84
2023/11/11 12:47:12;;;;;;;;;;;8.30;96.50;;;;;;5068000;28;20285;-82
2023/11/11 12:49:48;;;;;;;;;;;8.30;96.40;;;;;;5069984;28;19935;-84
2023/11/11 12:52:14;;;;;;;;;;;8.30;96.40;;;;;;5055542;28;19924;-84
2023/11/11 12:54:40;;;;;;;;;;;8.30;96.10;;;;;;5054534;28;19909;-85
2023/11/11 12:57:06;;;;;;;;;;;8.30;96.00;;;;;;5036106;28;19924;-85
2023/11/11 12:59:32;;;;;;;;;;;8.30;96.10;;;;;;5055478;28;19908;-83
2023/11/11 13:02:01;;;;;;;;;;;8.30;96.20;;;;;;5055472;28;20388;-85
2023/11/11 13:04:28;;;;;;;;;;;8.20;96.30;;;;;;5055055;28;20274;-84
2023/11/11 13:06:54;;;;;;;;;;;8.20;96.30;;;;;;5058573;28;19920;-87
2023/11/11 13:09:21;;;;;;;;;;;8.20;96.40;;;;;;5055831;28;19960;-84
2023/11/11 13:11:52;;;;;;;;;;;8.10;96.50;;;;;;5065693;28;19913;-85
2023/11/11 13:14:20;;;;;;;;;;;8.10;96.60;;;;;;5057301;28;19909;-86
2023/11/11 13:16:48;;;;;;;;;;;8.10;96.70;;;;;;5054037;28;19928;-85
2023/11/11 13:19:14;;;;;;;;;;;8.00;96.70;;;;;;5051254;28;19944;-87
2023/11/11 13:21:42;;;;;;;;;;;8.00;97.10;;;;;;5055220;28;19912;-88
2023/11/11 13:24:11;;;;;;;;;;;8.00;96.80;;;;;;5036226;28;20169;-89
2023/11/11 13:26:41;;;;;;;;;;;8.00;96.80;;;;;;5036779;28;19962;-88
2023/11/11 13:29:07;;;;;;;;;;;8.00;96.90;;;;;;5054978;28;19926;-88
2023/11/11 13:31:33;;;;;;;;;;;8.00;96.90;;;;;;5037584;28;20309;-86
2023/11/11 13:33:58;;;;;;;;;;;7.90;97.00;;;;;;5058118;28;19916;-86
2023/11/11 13:36:33;;;;;;;;;;;7.90;97.10;;;;;;5059987;28;20385;-85
2023/11/11 13:38:59;;;;;;;;;;;7.80;97.10;;;;;;5036065;28;20000;-84
2023/11/11 13:41:34;;;;;;;;;;;7.80;97.10;;;;;;5053150;28;20438;-84
2023/11/11 13:44:00;;;;;;;;;;;7.70;97.20;;;;;;5033890;28;19962;-82
2023/11/11 13:46:26;;;;;;;;;;;7.80;97.30;;;;;;5051824;28;20019;-81
2023/11/11 13:48:56;;;;;;;;;;;7.70;97.20;;;;;;5052993;28;19909;-84
2023/11/11 13:51:24;;;;;;;;;;;7.70;97.20;;;;;;5044233;28;20056;-84
2023/11/11 13:53:55;;;;;;;;;;;7.60;97.20;;;;;;5052949;28;19913;-84
2023/11/11 13:56:24;;;;;;;;;;;7.60;97.30;;;;;;5053757;28;20297;-83
2023/11/11 13:58:52;;;;;;;;;;;7.50;97.30;;;;;;5051721;28;19972;-83
2023/11/11 14:01:18;;;;;;;;;;;7.50;97.40;;;;;;5034429;28;19974;-82
2023/11/11 14:03:44;;;;;;;;;;;7.40;97.50;;;;;;5041689;28;19999;-86
2023/11/11 14:06:10;;;;;;;;;;;7.50;97.50;;;;;;5052408;28;19931;-83
2023/11/11 14:08:36;;;;;;;;;;;7.40;97.50;;;;;;5035152;28;19917;-82
2023/11/11 14:11:03;;;;;;;;;;;7.40;97.60;;;;;;5054951;28;19909;-82
2023/11/11 14:13:29;;;;;;;;;;;7.40;97.50;;;;;;5056409;28;19909;-82
2023/11/11 14:15:58;;;;;;;;;;;7.30;97.60;;;;;;5055114;28;20344;-85
2023/11/11 14:18:24;;;;;;;;;;;7.30;97.60;;;;;;5034202;28;19920;-85
2023/11/11 14:20:59;;;;;;;;;;;7.20;97.60;;;;;;5038792;28;20431;-85
2023/11/11 14:23:25;;;;;;;;;;;7.20;97.50;;;;;;5065902;28;19900;-85
2023/11/11 14:25:50;;;;;;;;;;;7.30;97.40;;;;;;5065004;28;19974;-84
2023/11/11 14:28:16;;;;;;;;;;;7.20;97.40;;;;;;5054313;28;20008;-84